sensor_id;sensor_type;location;lat;lon;timestamp;P1;durP1;ratioP1;P2;durP2;ratioP2
12290;SDS011;6208;48.956;9.076;2023-04-24T00:00:58;1.73;;;0.63;;
12290;SDS011;6208;48.956;9.076;2023-04-24T00:03:44;0.90;;;0.90;;
12290;SDS011;6208;48.956;9.076;2023-04-24T00:06:29;0.93;;;0.88;;
12290;SDS011;6208;48.956;9.076;2023-04-24T00:09:16;1.15;;;0.93;;
12290;SDS011;6208;48.956;9.076;2023-04-24T00:12:00;0.93;;;0.93;;
12290;SDS011;6208;48.956;9.076;2023-04-24T00:14:47;2.55;;;1.00;;
12290;SDS011;6208;48.956;9.076;2023-04-24T00:17:31;0.80;;;0.80;;
12290;SDS011;6208;48.956;9.076;2023-04-24T00:20:15;1.15;;;1.15;;
12290;SDS011;6208;48.956;9.076;2023-04-24T00:22:59;0.80;;;0.80;;
12290;SDS011;6208;48.956;9.076;2023-04-24T00:25:43;0.80;;;0.80;;
12290;SDS011;6208;48.956;9.076;2023-04-24T00:28:27;0.90;;;0.90;;
12290;SDS011;6208;48.956;9.076;2023-04-24T00:31:11;1.45;;;0.73;;
12290;SDS011;6208;48.956;9.076;2023-04-24T00:33:55;0.82;;;0.82;;
12290;SDS011;6208;48.956;9.076;2023-04-24T00:36:39;0.63;;;0.63;;
12290;SDS011;6208;48.956;9.076;2023-04-24T00:39:24;3.88;;;0.77;;
12290;SDS011;6208;48.956;9.076;2023-04-24T00:42:08;0.82;;;0.82;;
12290;SDS011;6208;48.956;9.076;2023-04-24T00:44:52;0.70;;;0.70;;
12290;SDS011;6208;48.956;9.076;2023-04-24T00:47:37;1.60;;;0.90;;
12290;SDS011;6208;48.956;9.076;2023-04-24T00:50:22;0.88;;;0.88;;
12290;SDS011;6208;48.956;9.076;2023-04-24T00:53:08;1.90;;;0.77;;
12290;SDS011;6208;48.956;9.076;2023-04-24T00:55:52;1.00;;;0.80;;
12290;SDS011;6208;48.956;9.076;2023-04-24T00:58:36;0.80;;;0.80;;
12290;SDS011;6208;48.956;9.076;2023-04-24T01:01:21;1.85;;;0.85;;
12290;SDS011;6208;48.956;9.076;2023-04-24T01:04:05;1.08;;;0.80;;
12290;SDS011;6208;48.956;9.076;2023-04-24T01:06:51;1.25;;;0.95;;
12290;SDS011;6208;48.956;9.076;2023-04-24T01:09:42;0.65;;;0.65;;
12290;SDS011;6208;48.956;9.076;2023-04-24T01:12:30;1.98;;;0.88;;
12290;SDS011;6208;48.956;9.076;2023-04-24T01:15:15;1.15;;;0.63;;
12290;SDS011;6208;48.956;9.076;2023-04-24T01:17:59;1.00;;;0.70;;
12290;SDS011;6208;48.956;9.076;2023-04-24T01:20:43;1.10;;;0.70;;
12290;SDS011;6208;48.956;9.076;2023-04-24T01:23:30;1.55;;;1.30;;
12290;SDS011;6208;48.956;9.076;2023-04-24T01:26:17;0.70;;;0.70;;
12290;SDS011;6208;48.956;9.076;2023-04-24T01:29:03;1.25;;;0.77;;
12290;SDS011;6208;48.956;9.076;2023-04-24T01:31:47;1.67;;;0.63;;
12290;SDS011;6208;48.956;9.076;2023-04-24T01:34:31;0.80;;;0.80;;
12290;SDS011;6208;48.956;9.076;2023-04-24T01:37:16;0.85;;;0.80;;
12290;SDS011;6208;48.956;9.076;2023-04-24T01:40:00;1.73;;;0.90;;
12290;SDS011;6208;48.956;9.076;2023-04-24T01:42:44;1.65;;;1.20;;
12290;SDS011;6208;48.956;9.076;2023-04-24T01:45:29;0.85;;;0.85;;
12290;SDS011;6208;48.956;9.076;2023-04-24T01:48:13;1.85;;;0.82;;
12290;SDS011;6208;48.956;9.076;2023-04-24T01:50:58;0.75;;;0.75;;
12290;SDS011;6208;48.956;9.076;2023-04-24T01:53:43;0.80;;;0.80;;
12290;SDS011;6208;48.956;9.076;2023-04-24T01:56:31;0.85;;;0.85;;
12290;SDS011;6208;48.956;9.076;2023-04-24T01:59:19;1.55;;;0.70;;
12290;SDS011;6208;48.956;9.076;2023-04-24T02:02:05;0.73;;;0.73;;
12290;SDS011;6208;48.956;9.076;2023-04-24T02:04:49;1.08;;;0.93;;
12290;SDS011;6208;48.956;9.076;2023-04-24T02:07:34;0.88;;;0.82;;
12290;SDS011;6208;48.956;9.076;2023-04-24T02:10:18;2.17;;;1.17;;
12290;SDS011;6208;48.956;9.076;2023-04-24T02:13:02;0.63;;;0.63;;
12290;SDS011;6208;48.956;9.076;2023-04-24T02:15:48;1.50;;;0.80;;
12290;SDS011;6208;48.956;9.076;2023-04-24T02:18:32;2.38;;;0.75;;
12290;SDS011;6208;48.956;9.076;2023-04-24T02:21:16;2.35;;;1.10;;
12290;SDS011;6208;48.956;9.076;2023-04-24T02:24:00;1.05;;;0.88;;
12290;SDS011;6208;48.956;9.076;2023-04-24T02:26:45;2.90;;;1.02;;
12290;SDS011;6208;48.956;9.076;2023-04-24T02:29:29;2.63;;;0.60;;
12290;SDS011;6208;48.956;9.076;2023-04-24T02:32:13;1.75;;;0.90;;
12290;SDS011;6208;48.956;9.076;2023-04-24T02:34:58;2.47;;;0.90;;
12290;SDS011;6208;48.956;9.076;2023-04-24T02:37:43;0.93;;;0.90;;
12290;SDS011;6208;48.956;9.076;2023-04-24T02:40:27;1.42;;;0.65;;
12290;SDS011;6208;48.956;9.076;2023-04-24T02:43:11;0.90;;;0.90;;
12290;SDS011;6208;48.956;9.076;2023-04-24T02:45:58;1.27;;;1.00;;
12290;SDS011;6208;48.956;9.076;2023-04-24T02:48:42;0.68;;;0.68;;
12290;SDS011;6208;48.956;9.076;2023-04-24T02:51:26;1.08;;;1.00;;
12290;SDS011;6208;48.956;9.076;2023-04-24T02:54:10;1.67;;;0.85;;
12290;SDS011;6208;48.956;9.076;2023-04-24T02:56:55;3.22;;;1.27;;
12290;SDS011;6208;48.956;9.076;2023-04-24T02:59:40;0.65;;;0.65;;
12290;SDS011;6208;48.956;9.076;2023-04-24T03:02:24;1.85;;;0.93;;
12290;SDS011;6208;48.956;9.076;2023-04-24T03:05:08;1.40;;;0.82;;
12290;SDS011;6208;48.956;9.076;2023-04-24T03:07:55;0.70;;;0.70;;
12290;SDS011;6208;48.956;9.076;2023-04-24T03:10:39;1.52;;;0.80;;
12290;SDS011;6208;48.956;9.076;2023-04-24T03:13:23;0.68;;;0.68;;
12290;SDS011;6208;48.956;9.076;2023-04-24T03:16:07;0.95;;;0.70;;
12290;SDS011;6208;48.956;9.076;2023-04-24T03:18:51;0.82;;;0.82;;
12290;SDS011;6208;48.956;9.076;2023-04-24T03:21:35;0.60;;;0.60;;
12290;SDS011;6208;48.956;9.076;2023-04-24T03:24:23;0.60;;;0.60;;
12290;SDS011;6208;48.956;9.076;2023-04-24T03:27:08;0.85;;;0.73;;
12290;SDS011;6208;48.956;9.076;2023-04-24T03:29:53;0.82;;;0.70;;
12290;SDS011;6208;48.956;9.076;2023-04-24T03:32:38;2.30;;;0.95;;
12290;SDS011;6208;48.956;9.076;2023-04-24T03:35:23;0.70;;;0.70;;
12290;SDS011;6208;48.956;9.076;2023-04-24T03:38:07;0.68;;;0.68;;
12290;SDS011;6208;48.956;9.076;2023-04-24T03:40:51;0.90;;;0.70;;
12290;SDS011;6208;48.956;9.076;2023-04-24T03:43:35;0.90;;;0.90;;
12290;SDS011;6208;48.956;9.076;2023-04-24T03:46:19;0.65;;;0.65;;
12290;SDS011;6208;48.956;9.076;2023-04-24T03:49:04;0.73;;;0.73;;
12290;SDS011;6208;48.956;9.076;2023-04-24T03:51:48;1.35;;;0.68;;
12290;SDS011;6208;48.956;9.076;2023-04-24T03:54:35;4.30;;;1.48;;
12290;SDS011;6208;48.956;9.076;2023-04-24T03:57:19;4.38;;;0.98;;
12290;SDS011;6208;48.956;9.076;2023-04-24T04:00:03;1.38;;;0.90;;
12290;SDS011;6208;48.956;9.076;2023-04-24T04:02:48;1.10;;;1.00;;
12290;SDS011;6208;48.956;9.076;2023-04-24T04:05:32;2.60;;;1.08;;
12290;SDS011;6208;48.956;9.076;2023-04-24T04:08:19;0.88;;;0.88;;
12290;SDS011;6208;48.956;9.076;2023-04-24T04:11:04;1.02;;;1.02;;
12290;SDS011;6208;48.956;9.076;2023-04-24T04:13:48;1.13;;;1.08;;
12290;SDS011;6208;48.956;9.076;2023-04-24T04:16:33;1.08;;;0.98;;
12290;SDS011;6208;48.956;9.076;2023-04-24T04:19:17;1.10;;;0.90;;
12290;SDS011;6208;48.956;9.076;2023-04-24T04:22:01;0.80;;;0.80;;
12290;SDS011;6208;48.956;9.076;2023-04-24T04:24:45;1.05;;;0.85;;
12290;SDS011;6208;48.956;9.076;2023-04-24T04:27:30;0.88;;;0.88;;
12290;SDS011;6208;48.956;9.076;2023-04-24T04:30:15;0.80;;;0.80;;
12290;SDS011;6208;48.956;9.076;2023-04-24T04:33:00;3.65;;;1.00;;
12290;SDS011;6208;48.956;9.076;2023-04-24T04:35:44;0.80;;;0.80;;
12290;SDS011;6208;48.956;9.076;2023-04-24T04:38:32;1.30;;;1.00;;
12290;SDS011;6208;48.956;9.076;2023-04-24T04:41:17;2.50;;;1.00;;
12290;SDS011;6208;48.956;9.076;2023-04-24T04:44:01;1.48;;;1.10;;
12290;SDS011;6208;48.956;9.076;2023-04-24T04:46:48;1.30;;;1.20;;
12290;SDS011;6208;48.956;9.076;2023-04-24T04:49:33;1.00;;;1.00;;
12290;SDS011;6208;48.956;9.076;2023-04-24T04:52:18;1.25;;;1.08;;
12290;SDS011;6208;48.956;9.076;2023-04-24T04:55:02;1.52;;;1.42;;
12290;SDS011;6208;48.956;9.076;2023-04-24T04:57:47;1.58;;;1.50;;
12290;SDS011;6208;48.956;9.076;2023-04-24T05:00:31;1.42;;;1.33;;
12290;SDS011;6208;48.956;9.076;2023-04-24T05:03:19;1.00;;;1.00;;
12290;SDS011;6208;48.956;9.076;2023-04-24T05:06:03;1.05;;;1.05;;
12290;SDS011;6208;48.956;9.076;2023-04-24T05:08:47;1.45;;;1.15;;
12290;SDS011;6208;48.956;9.076;2023-04-24T05:11:35;2.75;;;1.50;;
12290;SDS011;6208;48.956;9.076;2023-04-24T05:14:19;1.17;;;1.17;;
12290;SDS011;6208;48.956;9.076;2023-04-24T05:17:03;1.40;;;1.30;;
12290;SDS011;6208;48.956;9.076;2023-04-24T05:19:48;1.20;;;1.20;;
12290;SDS011;6208;48.956;9.076;2023-04-24T05:22:32;1.20;;;1.15;;
12290;SDS011;6208;48.956;9.076;2023-04-24T05:25:16;2.00;;;1.90;;
12290;SDS011;6208;48.956;9.076;2023-04-24T05:28:01;1.70;;;1.60;;
12290;SDS011;6208;48.956;9.076;2023-04-24T05:30:46;1.55;;;1.50;;
12290;SDS011;6208;48.956;9.076;2023-04-24T05:33:30;1.50;;;1.40;;
12290;SDS011;6208;48.956;9.076;2023-04-24T05:36:14;1.73;;;1.63;;
12290;SDS011;6208;48.956;9.076;2023-04-24T05:38:58;1.85;;;1.75;;
12290;SDS011;6208;48.956;9.076;2023-04-24T05:41:42;1.85;;;1.75;;
12290;SDS011;6208;48.956;9.076;2023-04-24T05:44:27;3.08;;;1.80;;
12290;SDS011;6208;48.956;9.076;2023-04-24T05:47:11;1.80;;;1.70;;
12290;SDS011;6208;48.956;9.076;2023-04-24T05:49:55;1.80;;;1.70;;
12290;SDS011;6208;48.956;9.076;2023-04-24T05:52:39;1.90;;;1.80;;
12290;SDS011;6208;48.956;9.076;2023-04-24T05:55:24;1.50;;;1.40;;
12290;SDS011;6208;48.956;9.076;2023-04-24T05:58:09;2.13;;;1.92;;
12290;SDS011;6208;48.956;9.076;2023-04-24T06:00:54;2.17;;;1.98;;
12290;SDS011;6208;48.956;9.076;2023-04-24T06:03:38;1.73;;;1.63;;
12290;SDS011;6208;48.956;9.076;2023-04-24T06:06:26;1.95;;;1.85;;
12290;SDS011;6208;48.956;9.076;2023-04-24T06:09:10;2.10;;;1.90;;
12290;SDS011;6208;48.956;9.076;2023-04-24T06:11:55;3.15;;;1.60;;
12290;SDS011;6208;48.956;9.076;2023-04-24T06:14:40;2.03;;;1.92;;
12290;SDS011;6208;48.956;9.076;2023-04-24T06:17:24;2.25;;;1.92;;
12290;SDS011;6208;48.956;9.076;2023-04-24T06:20:08;2.28;;;2.00;;
12290;SDS011;6208;48.956;9.076;2023-04-24T06:22:54;2.30;;;2.10;;
12290;SDS011;6208;48.956;9.076;2023-04-24T06:25:39;2.53;;;2.28;;
12290;SDS011;6208;48.956;9.076;2023-04-24T06:28:23;1.98;;;1.80;;
12290;SDS011;6208;48.956;9.076;2023-04-24T06:31:07;3.72;;;2.10;;
12290;SDS011;6208;48.956;9.076;2023-04-24T06:33:51;1.98;;;1.88;;
12290;SDS011;6208;48.956;9.076;2023-04-24T06:36:35;2.17;;;2.08;;
12290;SDS011;6208;48.956;9.076;2023-04-24T06:39:19;1.70;;;1.63;;
12290;SDS011;6208;48.956;9.076;2023-04-24T06:42:04;1.90;;;1.80;;
12290;SDS011;6208;48.956;9.076;2023-04-24T06:44:48;2.10;;;2.00;;
12290;SDS011;6208;48.956;9.076;2023-04-24T06:47:32;2.30;;;2.20;;
12290;SDS011;6208;48.956;9.076;2023-04-24T06:50:16;2.38;;;2.22;;
12290;SDS011;6208;48.956;9.076;2023-04-24T06:53:01;2.05;;;1.95;;
12290;SDS011;6208;48.956;9.076;2023-04-24T06:55:45;2.40;;;2.20;;
12290;SDS011;6208;48.956;9.076;2023-04-24T06:58:30;2.47;;;2.28;;
12290;SDS011;6208;48.956;9.076;2023-04-24T07:01:14;3.17;;;2.05;;
12290;SDS011;6208;48.956;9.076;2023-04-24T07:03:59;2.53;;;2.30;;
12290;SDS011;6208;48.956;9.076;2023-04-24T07:06:43;2.00;;;1.90;;
12290;SDS011;6208;48.956;9.076;2023-04-24T07:09:31;2.03;;;1.90;;
12290;SDS011;6208;48.956;9.076;2023-04-24T07:12:15;2.20;;;2.10;;
12290;SDS011;6208;48.956;9.076;2023-04-24T07:15:00;2.30;;;2.03;;
12290;SDS011;6208;48.956;9.076;2023-04-24T07:17:44;2.38;;;2.17;;
12290;SDS011;6208;48.956;9.076;2023-04-24T07:20:28;3.03;;;1.90;;
12290;SDS011;6208;48.956;9.076;2023-04-24T07:23:12;3.38;;;2.08;;
12290;SDS011;6208;48.956;9.076;2023-04-24T07:25:56;2.58;;;2.00;;
12290;SDS011;6208;48.956;9.076;2023-04-24T07:28:41;1.95;;;1.85;;
12290;SDS011;6208;48.956;9.076;2023-04-24T07:31:25;1.80;;;1.70;;
12290;SDS011;6208;48.956;9.076;2023-04-24T07:34:09;1.92;;;1.83;;
12290;SDS011;6208;48.956;9.076;2023-04-24T07:36:53;1.75;;;1.65;;
12290;SDS011;6208;48.956;9.076;2023-04-24T07:39:38;1.60;;;1.50;;
12290;SDS011;6208;48.956;9.076;2023-04-24T07:42:22;2.35;;;1.65;;
12290;SDS011;6208;48.956;9.076;2023-04-24T07:45:06;3.53;;;1.73;;
12290;SDS011;6208;48.956;9.076;2023-04-24T07:47:50;2.45;;;1.52;;
12290;SDS011;6208;48.956;9.076;2023-04-24T07:50:35;3.60;;;1.80;;
12290;SDS011;6208;48.956;9.076;2023-04-24T07:53:20;2.10;;;1.80;;
12290;SDS011;6208;48.956;9.076;2023-04-24T07:56:04;1.50;;;1.35;;
12290;SDS011;6208;48.956;9.076;2023-04-24T07:58:49;2.53;;;1.67;;
12290;SDS011;6208;48.956;9.076;2023-04-24T08:01:33;1.77;;;1.60;;
12290;SDS011;6208;48.956;9.076;2023-04-24T08:04:18;1.60;;;1.50;;
12290;SDS011;6208;48.956;9.076;2023-04-24T08:07:02;1.60;;;1.45;;
12290;SDS011;6208;48.956;9.076;2023-04-24T08:09:46;1.30;;;1.20;;
12290;SDS011;6208;48.956;9.076;2023-04-24T08:12:30;1.25;;;1.13;;
12290;SDS011;6208;48.956;9.076;2023-04-24T08:15:14;1.52;;;1.40;;
12290;SDS011;6208;48.956;9.076;2023-04-24T08:17:58;3.08;;;1.30;;
12290;SDS011;6208;48.956;9.076;2023-04-24T08:20:42;2.92;;;1.50;;
12290;SDS011;6208;48.956;9.076;2023-04-24T08:23:26;1.52;;;1.42;;
12290;SDS011;6208;48.956;9.076;2023-04-24T08:26:11;3.20;;;1.73;;
12290;SDS011;6208;48.956;9.076;2023-04-24T08:28:56;1.92;;;1.80;;
12290;SDS011;6208;48.956;9.076;2023-04-24T08:31:39;2.97;;;1.90;;
12290;SDS011;6208;48.956;9.076;2023-04-24T08:34:24;5.18;;;1.42;;
12290;SDS011;6208;48.956;9.076;2023-04-24T08:37:08;1.92;;;1.45;;
12290;SDS011;6208;48.956;9.076;2023-04-24T08:39:52;2.25;;;1.10;;
12290;SDS011;6208;48.956;9.076;2023-04-24T08:42:36;1.50;;;1.13;;
12290;SDS011;6208;48.956;9.076;2023-04-24T08:45:21;1.85;;;1.10;;
12290;SDS011;6208;48.956;9.076;2023-04-24T08:48:06;2.30;;;1.02;;
12290;SDS011;6208;48.956;9.076;2023-04-24T08:50:50;1.35;;;1.25;;
12290;SDS011;6208;48.956;9.076;2023-04-24T08:53:35;1.13;;;1.10;;
12290;SDS011;6208;48.956;9.076;2023-04-24T08:56:20;1.00;;;1.00;;
12290;SDS011;6208;48.956;9.076;2023-04-24T08:59:07;1.85;;;1.15;;
12290;SDS011;6208;48.956;9.076;2023-04-24T09:01:52;2.15;;;1.27;;
12290;SDS011;6208;48.956;9.076;2023-04-24T09:04:38;1.27;;;1.17;;
12290;SDS011;6208;48.956;9.076;2023-04-24T09:07:24;1.10;;;1.10;;
12290;SDS011;6208;48.956;9.076;2023-04-24T09:10:10;2.20;;;1.40;;
12290;SDS011;6208;48.956;9.076;2023-04-24T09:12:55;1.40;;;1.30;;
12290;SDS011;6208;48.956;9.076;2023-04-24T09:15:42;1.50;;;1.40;;
12290;SDS011;6208;48.956;9.076;2023-04-24T09:18:26;1.92;;;1.52;;
12290;SDS011;6208;48.956;9.076;2023-04-24T09:21:10;1.10;;;1.08;;
12290;SDS011;6208;48.956;9.076;2023-04-24T09:23:59;1.33;;;1.15;;
12290;SDS011;6208;48.956;9.076;2023-04-24T09:26:46;3.80;;;1.00;;
12290;SDS011;6208;48.956;9.076;2023-04-24T09:29:30;1.50;;;1.40;;
12290;SDS011;6208;48.956;9.076;2023-04-24T09:32:19;1.40;;;1.30;;
12290;SDS011;6208;48.956;9.076;2023-04-24T09:37:56;2.20;;;1.27;;
12290;SDS011;6208;48.956;9.076;2023-04-24T09:40:41;1.02;;;1.02;;
12290;SDS011;6208;48.956;9.076;2023-04-24T09:43:26;1.23;;;1.15;;
12290;SDS011;6208;48.956;9.076;2023-04-24T09:46:10;1.25;;;1.15;;
12290;SDS011;6208;48.956;9.076;2023-04-24T09:48:54;1.85;;;1.05;;
12290;SDS011;6208;48.956;9.076;2023-04-24T09:51:39;1.20;;;1.10;;
12290;SDS011;6208;48.956;9.076;2023-04-24T09:54:24;1.30;;;1.20;;
12290;SDS011;6208;48.956;9.076;2023-04-24T09:57:09;0.90;;;0.90;;
12290;SDS011;6208;48.956;9.076;2023-04-24T09:59:53;1.13;;;1.05;;
12290;SDS011;6208;48.956;9.076;2023-04-24T10:02:37;1.15;;;1.02;;
12290;SDS011;6208;48.956;9.076;2023-04-24T10:05:39;1.08;;;1.08;;
12290;SDS011;6208;48.956;9.076;2023-04-24T10:08:24;1.50;;;1.40;;
12290;SDS011;6208;48.956;9.076;2023-04-24T10:11:09;1.60;;;1.10;;
12290;SDS011;6208;48.956;9.076;2023-04-24T10:13:55;1.65;;;1.38;;
12290;SDS011;6208;48.956;9.076;2023-04-24T10:16:40;1.77;;;1.10;;
12290;SDS011;6208;48.956;9.076;2023-04-24T10:19:26;1.10;;;1.10;;
12290;SDS011;6208;48.956;9.076;2023-04-24T10:22:10;2.38;;;1.65;;
12290;SDS011;6208;48.956;9.076;2023-04-24T10:24:55;4.05;;;1.70;;
12290;SDS011;6208;48.956;9.076;2023-04-24T10:27:40;1.58;;;1.48;;
12290;SDS011;6208;48.956;9.076;2023-04-24T10:30:29;3.80;;;1.77;;
12290;SDS011;6208;48.956;9.076;2023-04-24T10:33:18;2.08;;;1.80;;
12290;SDS011;6208;48.956;9.076;2023-04-24T10:36:02;1.85;;;1.75;;
12290;SDS011;6208;48.956;9.076;2023-04-24T10:38:47;2.05;;;1.90;;
12290;SDS011;6208;48.956;9.076;2023-04-24T10:41:33;1.80;;;1.70;;
12290;SDS011;6208;48.956;9.076;2023-04-24T10:44:21;1.63;;;1.52;;
12290;SDS011;6208;48.956;9.076;2023-04-24T10:47:05;2.60;;;1.60;;
12290;SDS011;6208;48.956;9.076;2023-04-24T10:49:58;1.50;;;1.40;;
12290;SDS011;6208;48.956;9.076;2023-04-24T10:52:46;1.98;;;1.70;;
12290;SDS011;6208;48.956;9.076;2023-04-24T10:55:41;6.68;;;1.88;;
12290;SDS011;6208;48.956;9.076;2023-04-24T10:58:37;2.20;;;1.77;;
12290;SDS011;6208;48.956;9.076;2023-04-24T11:01:28;2.92;;;2.15;;
12290;SDS011;6208;48.956;9.076;2023-04-24T11:04:21;1.67;;;1.58;;
12290;SDS011;6208;48.956;9.076;2023-04-24T11:07:13;2.25;;;1.60;;
12290;SDS011;6208;48.956;9.076;2023-04-24T11:09:58;2.33;;;1.35;;
12290;SDS011;6208;48.956;9.076;2023-04-24T11:12:44;1.42;;;1.42;;
12290;SDS011;6208;48.956;9.076;2023-04-24T11:15:28;2.28;;;1.42;;
12290;SDS011;6208;48.956;9.076;2023-04-24T11:18:13;1.40;;;1.40;;
12290;SDS011;6208;48.956;9.076;2023-04-24T11:20:59;2.30;;;2.05;;
12290;SDS011;6208;48.956;9.076;2023-04-24T11:23:53;1.90;;;1.80;;
12290;SDS011;6208;48.956;9.076;2023-04-24T11:26:37;1.90;;;1.80;;
12290;SDS011;6208;48.956;9.076;2023-04-24T11:29:22;1.60;;;1.50;;
12290;SDS011;6208;48.956;9.076;2023-04-24T11:35:16;1.88;;;1.75;;
12290;SDS011;6208;48.956;9.076;2023-04-24T11:38:03;1.98;;;1.70;;
12290;SDS011;6208;48.956;9.076;2023-04-24T11:40:48;2.22;;;1.77;;
12290;SDS011;6208;48.956;9.076;2023-04-24T11:43:33;1.33;;;1.23;;
12290;SDS011;6208;48.956;9.076;2023-04-24T11:46:18;1.40;;;1.30;;
12290;SDS011;6208;48.956;9.076;2023-04-24T11:49:05;1.88;;;1.70;;
12290;SDS011;6208;48.956;9.076;2023-04-24T11:51:50;1.70;;;1.60;;
12290;SDS011;6208;48.956;9.076;2023-04-24T11:54:46;2.05;;;1.90;;
12290;SDS011;6208;48.956;9.076;2023-04-24T11:57:36;4.05;;;1.70;;
12290;SDS011;6208;48.956;9.076;2023-04-24T12:00:21;2.17;;;2.00;;
12290;SDS011;6208;48.956;9.076;2023-04-24T12:03:08;2.08;;;1.98;;
12290;SDS011;6208;48.956;9.076;2023-04-24T12:06:04;2.00;;;1.90;;
12290;SDS011;6208;48.956;9.076;2023-04-24T12:08:52;2.13;;;2.03;;
12290;SDS011;6208;48.956;9.076;2023-04-24T12:11:38;2.38;;;2.20;;
12290;SDS011;6208;48.956;9.076;2023-04-24T12:17:31;2.22;;;2.03;;
12290;SDS011;6208;48.956;9.076;2023-04-24T12:20:16;2.65;;;2.20;;
12290;SDS011;6208;48.956;9.076;2023-04-24T12:23:00;1.67;;;1.58;;
12290;SDS011;6208;48.956;9.076;2023-04-24T12:25:45;1.67;;;1.58;;
12290;SDS011;6208;48.956;9.076;2023-04-24T12:28:34;1.88;;;1.52;;
12290;SDS011;6208;48.956;9.076;2023-04-24T12:31:20;2.38;;;1.80;;
12290;SDS011;6208;48.956;9.076;2023-04-24T12:34:16;1.95;;;1.80;;
12290;SDS011;6208;48.956;9.076;2023-04-24T12:37:11;2.83;;;2.28;;
12290;SDS011;6208;48.956;9.076;2023-04-24T12:39:59;2.25;;;2.13;;
12290;SDS011;6208;48.956;9.076;2023-04-24T12:42:50;2.00;;;1.90;;
12290;SDS011;6208;48.956;9.076;2023-04-24T12:45:35;2.92;;;1.85;;
12290;SDS011;6208;48.956;9.076;2023-04-24T12:48:19;2.50;;;2.30;;
12290;SDS011;6208;48.956;9.076;2023-04-24T12:51:04;4.38;;;2.50;;
12290;SDS011;6208;48.956;9.076;2023-04-24T12:53:49;2.53;;;2.40;;
12290;SDS011;6208;48.956;9.076;2023-04-24T12:56:32;4.30;;;2.20;;
12290;SDS011;6208;48.956;9.076;2023-04-24T12:59:16;2.75;;;2.55;;
12290;SDS011;6208;48.956;9.076;2023-04-24T13:02:00;2.92;;;2.65;;
12290;SDS011;6208;48.956;9.076;2023-04-24T13:04:45;2.75;;;2.47;;
12290;SDS011;6208;48.956;9.076;2023-04-24T13:07:30;2.92;;;2.63;;
12290;SDS011;6208;48.956;9.076;2023-04-24T13:10:15;2.63;;;2.45;;
12290;SDS011;6208;48.956;9.076;2023-04-24T13:12:59;3.03;;;2.78;;
12290;SDS011;6208;48.956;9.076;2023-04-24T13:15:43;2.75;;;2.42;;
12290;SDS011;6208;48.956;9.076;2023-04-24T13:18:27;2.65;;;2.55;;
12290;SDS011;6208;48.956;9.076;2023-04-24T13:21:11;2.50;;;2.20;;
12290;SDS011;6208;48.956;9.076;2023-04-24T13:23:55;2.83;;;2.63;;
12290;SDS011;6208;48.956;9.076;2023-04-24T13:26:39;2.50;;;2.20;;
12290;SDS011;6208;48.956;9.076;2023-04-24T13:29:24;3.05;;;2.72;;
12290;SDS011;6208;48.956;9.076;2023-04-24T13:32:08;2.60;;;2.40;;
12290;SDS011;6208;48.956;9.076;2023-04-24T13:34:53;3.65;;;2.47;;
12290;SDS011;6208;48.956;9.076;2023-04-24T13:37:37;2.38;;;2.28;;
12290;SDS011;6208;48.956;9.076;2023-04-24T13:40:21;2.70;;;2.50;;
12290;SDS011;6208;48.956;9.076;2023-04-24T13:43:07;2.72;;;2.55;;
12290;SDS011;6208;48.956;9.076;2023-04-24T13:45:51;2.95;;;2.33;;
12290;SDS011;6208;48.956;9.076;2023-04-24T13:48:35;2.60;;;2.50;;
12290;SDS011;6208;48.956;9.076;2023-04-24T13:51:19;2.40;;;2.10;;
12290;SDS011;6208;48.956;9.076;2023-04-24T13:54:04;2.50;;;2.30;;
12290;SDS011;6208;48.956;9.076;2023-04-24T13:56:48;3.00;;;2.05;;
12290;SDS011;6208;48.956;9.076;2023-04-24T13:59:33;2.30;;;2.20;;
12290;SDS011;6208;48.956;9.076;2023-04-24T14:02:17;3.28;;;2.08;;
12290;SDS011;6208;48.956;9.076;2023-04-24T14:05:01;2.45;;;2.35;;
12290;SDS011;6208;48.956;9.076;2023-04-24T14:07:46;2.33;;;1.95;;
12290;SDS011;6208;48.956;9.076;2023-04-24T14:10:31;2.35;;;2.13;;
12290;SDS011;6208;48.956;9.076;2023-04-24T14:13:15;2.40;;;2.20;;
12290;SDS011;6208;48.956;9.076;2023-04-24T14:15:59;2.30;;;2.20;;
12290;SDS011;6208;48.956;9.076;2023-04-24T14:18:44;3.72;;;2.30;;
12290;SDS011;6208;48.956;9.076;2023-04-24T14:21:29;2.67;;;2.40;;
12290;SDS011;6208;48.956;9.076;2023-04-24T14:24:13;4.85;;;2.80;;
12290;SDS011;6208;48.956;9.076;2023-04-24T14:26:58;2.67;;;2.20;;
12290;SDS011;6208;48.956;9.076;2023-04-24T14:29:43;2.50;;;2.40;;
12290;SDS011;6208;48.956;9.076;2023-04-24T14:32:28;2.58;;;2.38;;
12290;SDS011;6208;48.956;9.076;2023-04-24T14:35:12;2.30;;;2.20;;
12290;SDS011;6208;48.956;9.076;2023-04-24T14:37:57;2.72;;;2.33;;
12290;SDS011;6208;48.956;9.076;2023-04-24T14:40:42;2.95;;;2.47;;
12290;SDS011;6208;48.956;9.076;2023-04-24T14:43:26;2.67;;;2.20;;
12290;SDS011;6208;48.956;9.076;2023-04-24T14:46:10;2.13;;;2.03;;
12290;SDS011;6208;48.956;9.076;2023-04-24T14:48:54;1.80;;;1.70;;
12290;SDS011;6208;48.956;9.076;2023-04-24T14:51:39;2.60;;;2.40;;
12290;SDS011;6208;48.956;9.076;2023-04-24T14:54:24;2.08;;;1.88;;
12290;SDS011;6208;48.956;9.076;2023-04-24T14:57:09;2.63;;;1.98;;
12290;SDS011;6208;48.956;9.076;2023-04-24T14:59:54;1.80;;;1.70;;
12290;SDS011;6208;48.956;9.076;2023-04-24T15:02:38;1.83;;;1.73;;
12290;SDS011;6208;48.956;9.076;2023-04-24T15:05:25;1.95;;;1.85;;
12290;SDS011;6208;48.956;9.076;2023-04-24T15:08:09;2.13;;;1.77;;
12290;SDS011;6208;48.956;9.076;2023-04-24T15:10:54;2.00;;;1.80;;
12290;SDS011;6208;48.956;9.076;2023-04-24T15:13:38;2.53;;;2.38;;
12290;SDS011;6208;48.956;9.076;2023-04-24T15:16:23;2.25;;;2.05;;
12290;SDS011;6208;48.956;9.076;2023-04-24T15:19:07;2.15;;;2.00;;
12290;SDS011;6208;48.956;9.076;2023-04-24T15:21:52;2.00;;;1.90;;
12290;SDS011;6208;48.956;9.076;2023-04-24T15:24:36;4.60;;;3.05;;
12290;SDS011;6208;48.956;9.076;2023-04-24T15:27:21;2.47;;;2.25;;
12290;SDS011;6208;48.956;9.076;2023-04-24T15:30:06;4.20;;;2.70;;
12290;SDS011;6208;48.956;9.076;2023-04-24T15:32:51;2.65;;;2.50;;
12290;SDS011;6208;48.956;9.076;2023-04-24T15:35:34;4.15;;;2.30;;
12290;SDS011;6208;48.956;9.076;2023-04-24T15:38:19;2.00;;;1.90;;
12290;SDS011;6208;48.956;9.076;2023-04-24T15:41:03;1.65;;;1.63;;
12290;SDS011;6208;48.956;9.076;2023-04-24T15:43:47;1.95;;;1.85;;
12290;SDS011;6208;48.956;9.076;2023-04-24T15:46:31;1.70;;;1.60;;
12290;SDS011;6208;48.956;9.076;2023-04-24T15:49:18;2.78;;;2.58;;
12290;SDS011;6208;48.956;9.076;2023-04-24T15:52:02;2.17;;;2.08;;
12290;SDS011;6208;48.956;9.076;2023-04-24T15:54:46;2.28;;;2.03;;
12290;SDS011;6208;48.956;9.076;2023-04-24T15:57:30;1.95;;;1.85;;
12290;SDS011;6208;48.956;9.076;2023-04-24T16:00:15;2.00;;;1.90;;
12290;SDS011;6208;48.956;9.076;2023-04-24T16:03:00;2.10;;;1.48;;
12290;SDS011;6208;48.956;9.076;2023-04-24T16:05:45;1.65;;;1.55;;
12290;SDS011;6208;48.956;9.076;2023-04-24T16:08:29;1.60;;;1.50;;
12290;SDS011;6208;48.956;9.076;2023-04-24T16:11:13;2.10;;;2.00;;
12290;SDS011;6208;48.956;9.076;2023-04-24T16:13:58;1.73;;;1.63;;
12290;SDS011;6208;48.956;9.076;2023-04-24T16:16:42;3.33;;;3.00;;
12290;SDS011;6208;48.956;9.076;2023-04-24T16:19:26;2.22;;;2.08;;
12290;SDS011;6208;48.956;9.076;2023-04-24T16:22:10;1.88;;;1.77;;
12290;SDS011;6208;48.956;9.076;2023-04-24T16:24:54;3.03;;;2.33;;
12290;SDS011;6208;48.956;9.076;2023-04-24T16:27:39;2.28;;;2.08;;
12290;SDS011;6208;48.956;9.076;2023-04-24T16:30:23;2.35;;;2.08;;
12290;SDS011;6208;48.956;9.076;2023-04-24T16:33:07;2.55;;;2.10;;
12290;SDS011;6208;48.956;9.076;2023-04-24T16:35:54;1.67;;;1.58;;
12290;SDS011;6208;48.956;9.076;2023-04-24T16:38:38;1.40;;;1.30;;
12290;SDS011;6208;48.956;9.076;2023-04-24T16:41:23;1.60;;;1.50;;
12290;SDS011;6208;48.956;9.076;2023-04-24T16:44:07;2.20;;;2.10;;
12290;SDS011;6208;48.956;9.076;2023-04-24T16:46:51;2.47;;;2.38;;
12290;SDS011;6208;48.956;9.076;2023-04-24T16:49:35;2.67;;;2.47;;
12290;SDS011;6208;48.956;9.076;2023-04-24T16:52:20;5.85;;;4.30;;
12290;SDS011;6208;48.956;9.076;2023-04-24T16:55:04;1.90;;;1.67;;
12290;SDS011;6208;48.956;9.076;2023-04-24T16:57:48;1.75;;;1.65;;